createdAt,value
2023-01-29T00:01:53.164Z,100.00
2023-01-29T00:04:59.115Z,100.00
2023-01-29T00:08:02.533Z,100.00
2023-01-29T00:11:09.021Z,100.00
2023-01-29T00:14:12.628Z,100.00
2023-01-29T00:17:16.323Z,100.00
2023-01-29T00:20:20.099Z,100.00
2023-01-29T00:23:25.323Z,100.00
2023-01-29T00:26:29.460Z,100.00
2023-01-29T00:29:32.906Z,100.00
2023-01-29T00:32:36.510Z,100.00
2023-01-29T00:35:41.151Z,100.00
2023-01-29T00:38:44.503Z,100.00
2023-01-29T00:42:06.564Z,100.00
2023-01-29T00:45:11.538Z,100.00
2023-01-29T00:48:14.920Z,100.00
2023-01-29T00:51:19.602Z,100.00
2023-01-29T00:54:23.334Z,100.00
2023-01-29T00:57:29.282Z,100.00
2023-01-29T01:00:33.701Z,100.00
2023-01-29T01:03:42.502Z,100.00
2023-01-29T01:06:47.771Z,100.00
2023-01-29T01:10:09.493Z,100.00
2023-01-29T01:13:13.108Z,100.00
2023-01-29T01:16:18.909Z,100.00
2023-01-29T01:19:22.559Z,100.00
2023-01-29T01:22:26.100Z,100.00
2023-01-29T01:25:29.726Z,100.00
2023-01-29T01:28:33.091Z,100.00
2023-01-29T01:31:36.899Z,100.00
2023-01-29T01:34:40.811Z,100.00
2023-01-29T01:37:44.704Z,100.00
2023-01-29T01:40:48.132Z,100.00
2023-01-29T01:43:55.834Z,100.00
2023-01-29T01:47:01.989Z,100.00
2023-01-29T01:50:16.117Z,100.00
2023-01-29T01:53:26.854Z,100.00
2023-01-29T01:56:40.621Z,100.00
2023-01-29T01:59:50.568Z,100.00
2023-01-29T02:03:13.947Z,100.00
2023-01-29T02:06:36.559Z,100.00
2023-01-29T02:09:46.853Z,100.00
2023-01-29T02:12:51.624Z,100.00
2023-01-29T02:15:54.897Z,100.00
2023-01-29T02:18:59.818Z,100.00
2023-01-29T02:22:29.384Z,100.00
2023-01-29T02:25:48.991Z,100.00
2023-01-29T02:28:56.798Z,100.00
2023-01-29T02:32:29.435Z,100.00
2023-01-29T02:35:39.407Z,100.00
2023-01-29T02:39:02.108Z,100.00
2023-01-29T02:42:35.984Z,100.00
2023-01-29T02:45:53.707Z,100.00
2023-01-29T02:49:05.872Z,100.00
2023-01-29T02:52:18.580Z,100.00
2023-01-29T02:55:30.071Z,100.00
2023-01-29T02:58:47.914Z,100.00
2023-01-29T03:02:05.510Z,100.00
2023-01-29T03:05:17.711Z,100.00
2023-01-29T03:08:37.354Z,100.00
2023-01-29T03:11:45.988Z,100.00
2023-01-29T03:15:11.324Z,100.00
2023-01-29T03:18:19.748Z,100.00
2023-01-29T03:21:48.949Z,100.00
2023-01-29T03:25:20.850Z,100.00
2023-01-29T03:28:43.484Z,100.00
2023-01-29T03:32:06.997Z,100.00
2023-01-29T03:35:13.248Z,100.00
2023-01-29T03:38:17.322Z,100.00
2023-01-29T03:41:31.543Z,100.00
2023-01-29T03:44:48.927Z,100.00
2023-01-29T03:48:00.952Z,100.00
2023-01-29T03:51:26.476Z,100.00
2023-01-29T03:54:44.385Z,100.00
2023-01-29T03:58:00.020Z,100.00
2023-01-29T04:01:14.775Z,100.00
2023-01-29T04:04:27.077Z,100.00
2023-01-29T04:07:33.500Z,100.00
2023-01-29T04:10:41.557Z,100.00
2023-01-29T04:13:47.031Z,100.00
2023-01-29T04:16:56.103Z,100.00
2023-01-29T04:20:01.753Z,100.00
2023-01-29T04:23:07.540Z,100.00
2023-01-29T04:26:37.850Z,100.00
2023-01-29T04:30:06.763Z,100.00
2023-01-29T04:33:20.138Z,100.00
2023-01-29T04:37:07.798Z,100.00
2023-01-29T04:40:24.012Z,100.00
2023-01-29T04:43:56.969Z,100.00
2023-01-29T04:47:18.935Z,100.00
2023-01-29T04:50:26.866Z,100.00
2023-01-29T04:53:50.119Z,100.00
2023-01-29T04:57:02.780Z,100.00
2023-01-29T05:00:13.178Z,100.00
2023-01-29T05:03:17.423Z,100.00
2023-01-29T05:06:21.537Z,100.00
2023-01-29T05:09:26.270Z,100.00
2023-01-29T05:12:31.387Z,100.00
2023-01-29T05:15:39.394Z,100.00
2023-01-29T05:18:43.077Z,100.00
2023-01-29T05:21:49.438Z,100.00
2023-01-29T05:24:53.113Z,100.00
2023-01-29T05:28:14.131Z,100.00
2023-01-29T05:31:17.575Z,100.00
2023-01-29T05:34:21.371Z,100.00
2023-01-29T05:37:24.584Z,100.00
2023-01-29T05:40:28.522Z,100.00
2023-01-29T05:43:31.729Z,100.00
2023-01-29T05:46:35.108Z,100.00
2023-01-29T05:49:38.859Z,100.00
2023-01-29T05:52:42.929Z,100.00
2023-01-29T05:55:48.014Z,100.00
2023-01-29T05:58:51.770Z,100.00
2023-01-29T06:01:55.013Z,100.00
2023-01-29T06:04:58.728Z,100.00
2023-01-29T06:08:01.899Z,100.00
2023-01-29T06:11:12.402Z,100.00
2023-01-29T06:14:15.519Z,100.00
2023-01-29T06:17:19.030Z,100.00
2023-01-29T06:20:23.079Z,100.00
2023-01-29T06:23:26.549Z,100.00
2023-01-29T06:26:30.654Z,100.00
2023-01-29T06:29:36.651Z,100.00
2023-01-29T06:32:41.422Z,100.00
2023-01-29T06:35:44.944Z,100.00
2023-01-29T06:38:48.438Z,100.00
2023-01-29T06:41:52.183Z,100.00
2023-01-29T06:44:56.596Z,100.00
2023-01-29T06:48:01.582Z,100.00
2023-01-29T06:51:06.749Z,100.00
2023-01-29T06:54:11.336Z,100.00
2023-01-29T06:57:14.541Z,99.83
2023-01-29T07:00:19.248Z,100.00
2023-01-29T07:03:22.534Z,100.00
2023-01-29T07:06:29.593Z,100.00
2023-01-29T07:09:33.028Z,99.63
2023-01-29T07:12:37.089Z,99.91
2023-01-29T07:15:40.590Z,99.93
2023-01-29T07:18:44.009Z,100.00
2023-01-29T07:21:47.151Z,100.00
2023-01-29T07:24:50.674Z,100.00
2023-01-29T07:27:54.031Z,100.00
2023-01-29T07:30:59.448Z,100.00
2023-01-29T07:34:03.247Z,100.00
2023-01-29T07:37:08.119Z,100.00
2023-01-29T07:40:12.131Z,100.00
2023-01-29T07:43:16.934Z,100.00
2023-01-29T07:46:21.095Z,100.00
2023-01-29T07:49:24.802Z,100.00
2023-01-29T07:52:30.822Z,100.00
2023-01-29T07:55:34.503Z,100.00
2023-01-29T07:58:37.763Z,100.00
2023-01-29T08:01:41.133Z,100.00
2023-01-29T08:04:44.627Z,100.00
2023-01-29T08:08:05.822Z,100.00
2023-01-29T08:11:10.453Z,100.00
2023-01-29T08:14:13.563Z,100.00
2023-01-29T08:17:17.865Z,100.00
2023-01-29T08:20:22.566Z,98.28
2023-01-29T08:23:27.448Z,95.43
2023-01-29T08:26:30.920Z,92.22
2023-01-29T08:29:34.403Z,91.46
2023-01-29T08:32:38.214Z,91.62
2023-01-29T08:35:41.690Z,92.51
2023-01-29T08:38:44.751Z,91.28
2023-01-29T08:41:48.086Z,91.93
2023-01-29T08:44:51.503Z,93.08
2023-01-29T08:47:55.070Z,91.49
2023-01-29T08:50:59.825Z,91.53
2023-01-29T08:54:03.381Z,90.64
2023-01-29T08:57:08.613Z,90.20
2023-01-29T09:00:19.861Z,89.29
2023-01-29T09:03:23.498Z,88.80
2023-01-29T09:06:26.845Z,88.99
2023-01-29T09:09:30.349Z,88.17
2023-01-29T09:12:34.144Z,89.03
2023-01-29T09:15:37.708Z,89.06
2023-01-29T09:18:40.997Z,88.87
2023-01-29T09:21:45.205Z,89.29
2023-01-29T09:24:48.641Z,87.92
2023-01-29T09:27:52.036Z,88.18
2023-01-29T09:30:55.827Z,87.54
2023-01-29T09:33:59.399Z,85.76
2023-01-29T09:37:02.786Z,86.19
2023-01-29T09:40:08.093Z,85.93
2023-01-29T09:43:19.808Z,86.92
2023-01-29T09:46:38.728Z,85.39
2023-01-29T09:49:47.407Z,84.83
2023-01-29T09:53:07.519Z,83.75
2023-01-29T09:56:21.695Z,83.59
2023-01-29T09:59:28.099Z,84.04
2023-01-29T10:02:37.252Z,84.21
2023-01-29T10:05:55.671Z,84.41
2023-01-29T10:08:59.310Z,83.36
2023-01-29T10:12:13.284Z,82.04
2023-01-29T10:15:34.987Z,82.35
2023-01-29T10:19:21.857Z,81.90
2023-01-29T10:22:27.815Z,81.48
2023-01-29T10:25:35.904Z,82.12
2023-01-29T10:28:48.476Z,80.69
2023-01-29T10:31:57.302Z,81.14
2023-01-29T10:35:22.174Z,80.08
2023-01-29T10:38:38.836Z,79.96
2023-01-29T10:42:20.084Z,79.33
2023-01-29T10:45:44.709Z,79.75
2023-01-29T10:49:24.922Z,79.27
2023-01-29T10:52:44.547Z,78.04
2023-01-29T10:56:20.989Z,77.41
2023-01-29T10:59:28.976Z,77.02
2023-01-29T11:02:34.076Z,77.79
2023-01-29T11:06:16.537Z,77.15
2023-01-29T11:09:39.892Z,77.67
2023-01-29T11:12:44.864Z,76.30
2023-01-29T11:15:53.044Z,77.41
2023-01-29T11:18:59.674Z,76.69
2023-01-29T11:22:04.587Z,77.67
2023-01-29T11:25:16.283Z,75.40
2023-01-29T11:28:43.307Z,74.15
2023-01-29T11:31:47.835Z,75.82
2023-01-29T11:35:03.801Z,74.68
2023-01-29T11:38:30.453Z,74.44
2023-01-29T11:41:44.004Z,75.34
2023-01-29T11:44:47.867Z,74.73
2023-01-29T11:47:55.456Z,74.95
2023-01-29T11:51:01.206Z,74.46
2023-01-29T11:54:06.644Z,74.84
2023-01-29T11:57:38.905Z,73.76
2023-01-29T12:00:48.304Z,72.72
2023-01-29T12:03:54.076Z,73.51
2023-01-29T12:06:58.894Z,72.73
2023-01-29T12:10:03.616Z,73.29
2023-01-29T12:13:09.933Z,73.57
2023-01-29T12:16:36.968Z,74.34
2023-01-29T12:19:49.246Z,74.20
2023-01-29T12:23:11.906Z,73.31
2023-01-29T12:26:22.192Z,73.10
2023-01-29T12:29:45.883Z,73.31
2023-01-29T12:33:08.834Z,72.76
2023-01-29T12:36:47.233Z,73.04
2023-01-29T12:39:53.574Z,72.81
2023-01-29T12:43:04.993Z,72.54
2023-01-29T12:46:24.653Z,72.53
2023-01-29T12:49:34.364Z,72.85
2023-01-29T12:52:50.975Z,73.35
2023-01-29T12:56:02.829Z,72.33
2023-01-29T12:59:22.121Z,71.10
2023-01-29T13:02:30.098Z,71.76
2023-01-29T13:05:54.650Z,71.68
2023-01-29T13:09:03.651Z,71.09
2023-01-29T13:12:18.820Z,71.46
2023-01-29T13:15:29.044Z,71.58
2023-01-29T13:18:55.886Z,71.76
2023-01-29T13:22:03.362Z,71.88
2023-01-29T13:25:16.296Z,69.72
2023-01-29T13:28:23.272Z,70.29
2023-01-29T13:31:49.084Z,70.31
2023-01-29T13:34:57.356Z,70.76
2023-01-29T13:38:01.030Z,71.18
2023-01-29T13:41:12.891Z,71.74
2023-01-29T13:44:27.479Z,70.88
2023-01-29T13:47:33.706Z,70.46
2023-01-29T13:50:43.375Z,71.47
2023-01-29T13:54:01.974Z,71.62
2023-01-29T13:57:06.109Z,71.68
2023-01-29T14:00:34.538Z,71.43
2023-01-29T14:04:02.236Z,72.33
2023-01-29T14:07:45.336Z,72.92
2023-01-29T14:11:17.816Z,72.23
2023-01-29T14:14:50.759Z,72.32
2023-01-29T14:18:09.005Z,73.33
2023-01-29T14:21:42.007Z,72.90
2023-01-29T14:24:46.077Z,72.85
2023-01-29T14:27:50.232Z,72.91
2023-01-29T14:30:57.117Z,72.65
2023-01-29T14:34:04.472Z,73.42
2023-01-29T14:37:15.474Z,73.57
2023-01-29T14:40:19.372Z,72.64
2023-01-29T14:43:23.079Z,74.18
2023-01-29T14:46:36.129Z,73.56
2023-01-29T14:49:55.807Z,73.04
2023-01-29T14:53:13.803Z,74.37
2023-01-29T14:56:27.599Z,74.77
2023-01-29T14:59:32.859Z,75.54
2023-01-29T15:02:43.331Z,76.00
2023-01-29T15:05:52.272Z,75.24
2023-01-29T15:09:08.079Z,76.42
2023-01-29T15:12:34.081Z,76.58
2023-01-29T15:15:46.282Z,77.15
2023-01-29T15:19:00.555Z,77.23
2023-01-29T15:22:19.659Z,77.27
2023-01-29T15:25:26.483Z,77.80
2023-01-29T15:28:34.079Z,78.18
2023-01-29T15:31:43.038Z,78.66
2023-01-29T15:34:48.769Z,78.13
2023-01-29T15:38:17.098Z,77.92
2023-01-29T15:41:24.349Z,79.37
2023-01-29T15:44:27.980Z,80.20
2023-01-29T15:47:33.381Z,80.40
2023-01-29T15:50:41.904Z,81.13
2023-01-29T15:53:53.925Z,81.43
2023-01-29T15:56:59.744Z,81.93
2023-01-29T16:00:06.290Z,82.77
2023-01-29T16:03:16.238Z,83.73
2023-01-29T16:06:24.268Z,84.26
2023-01-29T16:09:29.988Z,85.29
2023-01-29T16:12:39.038Z,86.28
2023-01-29T16:15:57.008Z,87.12
2023-01-29T16:19:01.679Z,88.31
2023-01-29T16:22:09.802Z,88.92
2023-01-29T16:25:16.815Z,89.15
2023-01-29T16:28:23.061Z,88.92
2023-01-29T16:31:33.876Z,88.60
2023-01-29T16:34:45.824Z,89.55
2023-01-29T16:37:52.476Z,90.83
2023-01-29T16:41:21.908Z,90.41
2023-01-29T16:44:36.690Z,90.72
2023-01-29T16:47:42.077Z,90.77
2023-01-29T16:50:55.133Z,90.26
2023-01-29T16:54:18.939Z,88.28
2023-01-29T16:57:27.229Z,88.13
2023-01-29T17:00:32.928Z,87.07
2023-01-29T17:03:40.242Z,87.35
2023-01-29T17:06:49.568Z,88.00
2023-01-29T17:10:00.931Z,88.41
2023-01-29T17:13:11.107Z,86.85
2023-01-29T17:16:21.302Z,86.89
2023-01-29T17:19:26.469Z,87.06
2023-01-29T17:22:33.867Z,87.45
2023-01-29T17:25:38.906Z,88.57
2023-01-29T17:28:45.575Z,89.11
2023-01-29T17:31:53.304Z,89.10
2023-01-29T17:35:00.673Z,89.92
2023-01-29T17:38:11.499Z,88.98
2023-01-29T17:41:31.068Z,89.59
2023-01-29T17:44:35.958Z,90.26
2023-01-29T17:47:41.600Z,90.61
2023-01-29T17:50:50.468Z,90.95
2023-01-29T17:53:55.809Z,91.56
2023-01-29T17:57:00.909Z,91.77
2023-01-29T18:00:26.751Z,92.84
2023-01-29T18:03:32.519Z,93.99
2023-01-29T18:06:38.788Z,94.98
2023-01-29T18:09:45.952Z,95.63
2023-01-29T18:12:52.948Z,96.40
2023-01-29T18:16:00.757Z,97.15
2023-01-29T18:19:16.431Z,97.40
2023-01-29T18:22:21.994Z,98.49
2023-01-29T18:25:26.907Z,98.64
2023-01-29T18:28:32.103Z,98.92
2023-01-29T18:31:37.737Z,99.21
2023-01-29T18:34:43.418Z,99.50
2023-01-29T18:37:48.707Z,98.43
2023-01-29T18:40:56.546Z,98.87
2023-01-29T18:44:00.569Z,99.26
2023-01-29T18:47:07.976Z,99.51
2023-01-29T18:50:13.294Z,99.84
2023-01-29T18:53:22.202Z,100.00
2023-01-29T18:56:26.852Z,100.00
2023-01-29T18:59:32.895Z,100.00
2023-01-29T19:02:38.997Z,100.00
2023-01-29T19:05:44.981Z,100.00
2023-01-29T19:08:50.077Z,100.00
2023-01-29T19:11:57.277Z,100.00
2023-01-29T19:15:02.502Z,100.00
2023-01-29T19:18:08.462Z,100.00
2023-01-29T19:21:15.649Z,100.00
2023-01-29T19:24:24.236Z,100.00
2023-01-29T19:27:31.098Z,100.00
2023-01-29T19:30:36.611Z,100.00
2023-01-29T19:33:42.094Z,100.00
2023-01-29T19:36:48.117Z,100.00
2023-01-29T19:39:54.483Z,100.00
2023-01-29T19:43:00.331Z,100.00
2023-01-29T19:46:05.037Z,100.00
2023-01-29T19:49:10.836Z,100.00
2023-01-29T19:52:52.275Z,100.00
2023-01-29T19:55:59.567Z,100.00
2023-01-29T19:59:09.116Z,100.00
2023-01-29T20:02:16.049Z,100.00
2023-01-29T20:05:27.619Z,100.00
2023-01-29T20:08:33.508Z,100.00
2023-01-29T20:11:43.053Z,100.00
2023-01-29T20:14:53.562Z,100.00
2023-01-29T20:17:59.719Z,100.00
2023-01-29T20:21:11.620Z,98.73
2023-01-29T20:24:19.434Z,98.19
2023-01-29T20:27:24.871Z,98.18
2023-01-29T20:30:31.739Z,98.74
2023-01-29T20:33:39.642Z,99.51
2023-01-29T20:36:48.232Z,100.00
2023-01-29T20:39:55.468Z,100.00
2023-01-29T20:43:01.893Z,100.00
2023-01-29T20:46:06.415Z,100.00
2023-01-29T20:49:12.972Z,100.00
2023-01-29T20:52:18.149Z,100.00
2023-01-29T20:55:23.850Z,100.00
2023-01-29T20:58:29.383Z,100.00
2023-01-29T21:01:34.919Z,100.00
2023-01-29T21:04:40.411Z,100.00
2023-01-29T21:07:45.708Z,100.00
2023-01-29T21:10:54.895Z,100.00
2023-01-29T21:14:00.565Z,100.00
2023-01-29T21:17:06.285Z,100.00
2023-01-29T21:20:12.367Z,100.00
2023-01-29T21:23:16.799Z,100.00
2023-01-29T21:26:21.063Z,99.55
2023-01-29T21:29:29.264Z,98.60
2023-01-29T21:32:35.150Z,98.44
2023-01-29T21:35:39.363Z,98.73
2023-01-29T21:38:45.219Z,98.62
2023-01-29T21:42:10.267Z,99.33
2023-01-29T21:45:15.325Z,99.55
2023-01-29T21:48:19.242Z,100.00
2023-01-29T21:51:23.905Z,100.00
2023-01-29T21:54:31.107Z,100.00
2023-01-29T21:57:35.265Z,100.00
2023-01-29T22:00:38.786Z,100.00
2023-01-29T22:03:42.271Z,100.00
2023-01-29T22:06:45.504Z,100.00
2023-01-29T22:09:49.964Z,100.00
2023-01-29T22:12:53.231Z,100.00
2023-01-29T22:15:56.757Z,100.00
2023-01-29T22:19:00.136Z,100.00
2023-01-29T22:22:04.125Z,100.00
2023-01-29T22:25:07.859Z,100.00
2023-01-29T22:28:11.527Z,100.00
2023-01-29T22:31:15.287Z,100.00
2023-01-29T22:34:18.663Z,100.00
2023-01-29T22:37:22.271Z,100.00
2023-01-29T22:40:26.479Z,100.00
2023-01-29T22:43:29.753Z,100.00
2023-01-29T22:46:33.323Z,100.00
2023-01-29T22:49:36.842Z,100.00
2023-01-29T22:52:42.980Z,100.00
2023-01-29T22:55:54.931Z,100.00
2023-01-29T22:59:00.709Z,100.00
2023-01-29T23:02:04.779Z,100.00
2023-01-29T23:05:08.559Z,100.00
2023-01-29T23:08:11.691Z,100.00
2023-01-29T23:11:19.964Z,100.00
2023-01-29T23:14:23.087Z,100.00
2023-01-29T23:17:26.443Z,100.00
2023-01-29T23:20:29.679Z,100.00
2023-01-29T23:23:35.327Z,100.00
2023-01-29T23:26:57.298Z,100.00
2023-01-29T23:30:01.769Z,100.00
2023-01-29T23:33:07.445Z,100.00
2023-01-29T23:36:11.091Z,100.00
2023-01-29T23:39:15.017Z,100.00
2023-01-29T23:42:18.706Z,100.00
2023-01-29T23:45:22.434Z,100.00
2023-01-29T23:48:26.303Z,100.00
2023-01-29T23:51:29.562Z,100.00
2023-01-29T23:54:33.172Z,100.00
2023-01-29T23:57:36.357Z,100.00
